sensor_id;sensor_type;location;lat;lon;timestamp;pressure;altitude;pressure_sealevel;temperature;humidity
54996;BME280;40893;47.146;9.126;2022-07-04T00:00:06;91640.25;;;16.95;100.00
54996;BME280;40893;47.146;9.126;2022-07-04T00:02:32;91638.31;;;16.92;100.00
54996;BME280;40893;47.146;9.126;2022-07-04T00:04:58;91631.59;;;16.91;100.00
54996;BME280;40893;47.146;9.126;2022-07-04T00:07:24;91639.97;;;16.97;100.00
54996;BME280;40893;47.146;9.126;2022-07-04T00:09:49;91632.50;;;16.95;100.00
54996;BME280;40893;47.146;9.126;2022-07-04T00:12:15;91614.53;;;16.90;100.00
54996;BME280;40893;47.146;9.126;2022-07-04T00:14:40;91611.16;;;16.90;100.00
54996;BME280;40893;47.146;9.126;2022-07-04T00:17:06;91605.22;;;16.81;100.00
54996;BME280;40893;47.146;9.126;2022-07-04T00:19:32;91606.88;;;16.85;100.00
54996;BME280;40893;47.146;9.126;2022-07-04T00:21:58;91606.91;;;16.77;100.00
54996;BME280;40893;47.146;9.126;2022-07-04T00:24:23;91612.53;;;16.79;100.00
54996;BME280;40893;47.146;9.126;2022-07-04T00:26:49;91609.50;;;16.77;100.00
54996;BME280;40893;47.146;9.126;2022-07-04T00:29:14;91595.94;;;16.80;100.00
54996;BME280;40893;47.146;9.126;2022-07-04T00:31:40;91604.00;;;16.78;100.00
54996;BME280;40893;47.146;9.126;2022-07-04T00:34:06;91594.09;;;16.80;100.00
54996;BME280;40893;47.146;9.126;2022-07-04T00:36:34;91606.13;;;16.76;100.00
54996;BME280;40893;47.146;9.126;2022-07-04T00:39:00;91605.50;;;16.70;100.00
54996;BME280;40893;47.146;9.126;2022-07-04T00:41:28;91595.91;;;16.71;100.00
54996;BME280;40893;47.146;9.126;2022-07-04T00:44:05;91587.25;;;16.67;100.00
54996;BME280;40893;47.146;9.126;2022-07-04T00:46:31;91588.31;;;16.66;100.00
54996;BME280;40893;47.146;9.126;2022-07-04T00:48:57;91589.38;;;16.65;100.00
54996;BME280;40893;47.146;9.126;2022-07-04T00:51:24;91587.72;;;16.69;100.00
54996;BME280;40893;47.146;9.126;2022-07-04T00:53:56;91586.94;;;16.68;100.00
54996;BME280;40893;47.146;9.126;2022-07-04T00:56:23;91581.00;;;16.68;100.00
54996;BME280;40893;47.146;9.126;2022-07-04T00:58:52;91584.19;;;16.65;96.92
54996;BME280;40893;47.146;9.126;2022-07-04T01:01:19;91583.41;;;16.56;100.00
54996;BME280;40893;47.146;9.126;2022-07-04T01:03:45;91581.59;;;16.56;100.00
54996;BME280;40893;47.146;9.126;2022-07-04T01:06:13;91572.59;;;16.54;100.00
54996;BME280;40893;47.146;9.126;2022-07-04T01:08:41;91565.28;;;16.56;100.00
54996;BME280;40893;47.146;9.126;2022-07-04T01:11:08;91569.72;;;16.64;100.00
54996;BME280;40893;47.146;9.126;2022-07-04T01:13:36;91554.63;;;16.66;100.00
54996;BME280;40893;47.146;9.126;2022-07-04T01:23:08;91562.53;;;16.44;100.00
54996;BME280;40893;47.146;9.126;2022-07-04T01:25:38;91562.25;;;16.45;100.00
54996;BME280;40893;47.146;9.126;2022-07-04T01:28:05;91566.34;;;16.46;100.00
54996;BME280;40893;47.146;9.126;2022-07-04T01:30:59;91567.09;;;16.38;100.00
54996;BME280;40893;47.146;9.126;2022-07-04T01:34:10;91561.00;;;16.34;100.00
54996;BME280;40893;47.146;9.126;2022-07-04T01:36:38;91567.69;;;16.26;100.00
54996;BME280;40893;47.146;9.126;2022-07-04T01:42:13;91558.72;;;16.41;100.00
54996;BME280;40893;47.146;9.126;2022-07-04T01:45:39;91556.44;;;16.48;100.00
54996;BME280;40893;47.146;9.126;2022-07-04T03:19:25;91738.38;;;16.71;99.23
54996;BME280;40893;47.146;9.126;2022-07-04T03:21:52;91753.16;;;16.70;97.82
54996;BME280;40893;47.146;9.126;2022-07-04T03:24:17;91756.22;;;16.64;100.00
54996;BME280;40893;47.146;9.126;2022-07-04T03:26:43;91757.06;;;16.59;100.00
54996;BME280;40893;47.146;9.126;2022-07-04T03:29:08;91760.09;;;16.44;100.00
54996;BME280;40893;47.146;9.126;2022-07-04T03:31:34;91770.66;;;16.25;100.00
54996;BME280;40893;47.146;9.126;2022-07-04T03:34:00;91762.16;;;16.25;100.00
54996;BME280;40893;47.146;9.126;2022-07-04T03:36:25;91756.63;;;16.18;100.00
54996;BME280;40893;47.146;9.126;2022-07-04T03:38:51;91758.44;;;16.17;100.00
54996;BME280;40893;47.146;9.126;2022-07-04T03:41:16;91750.88;;;16.21;100.00
54996;BME280;40893;47.146;9.126;2022-07-04T03:43:42;91758.34;;;16.22;100.00
54996;BME280;40893;47.146;9.126;2022-07-04T03:46:07;91743.28;;;16.24;100.00
54996;BME280;40893;47.146;9.126;2022-07-04T03:48:33;91735.66;;;16.28;100.00
54996;BME280;40893;47.146;9.126;2022-07-04T03:50:59;91723.66;;;16.32;100.00
54996;BME280;40893;47.146;9.126;2022-07-04T03:53:24;91713.91;;;16.38;100.00
54996;BME280;40893;47.146;9.126;2022-07-04T03:55:50;91708.91;;;16.41;100.00
54996;BME280;40893;47.146;9.126;2022-07-04T03:58:15;91693.34;;;16.41;100.00
54996;BME280;40893;47.146;9.126;2022-07-04T04:00:41;91693.06;;;16.43;100.00
54996;BME280;40893;47.146;9.126;2022-07-04T04:03:07;91706.19;;;16.46;100.00
54996;BME280;40893;47.146;9.126;2022-07-04T04:05:54;91718.50;;;16.49;100.00
54996;BME280;40893;47.146;9.126;2022-07-04T04:08:19;91726.44;;;16.53;100.00
54996;BME280;40893;47.146;9.126;2022-07-04T04:10:45;91727.81;;;16.50;100.00
54996;BME280;40893;47.146;9.126;2022-07-04T04:13:11;91719.28;;;16.50;100.00
54996;BME280;40893;47.146;9.126;2022-07-04T04:15:36;91710.75;;;16.49;100.00
54996;BME280;40893;47.146;9.126;2022-07-04T04:18:02;91713.31;;;16.49;100.00
54996;BME280;40893;47.146;9.126;2022-07-04T04:20:27;91709.66;;;16.42;100.00
54996;BME280;40893;47.146;9.126;2022-07-04T04:22:53;91704.31;;;16.38;100.00
54996;BME280;40893;47.146;9.126;2022-07-04T04:25:18;91706.91;;;16.38;100.00
54996;BME280;40893;47.146;9.126;2022-07-04T04:27:44;91706.00;;;16.43;100.00
54996;BME280;40893;47.146;9.126;2022-07-04T04:30:10;91699.91;;;16.39;100.00
54996;BME280;40893;47.146;9.126;2022-07-04T04:32:35;91698.25;;;16.43;100.00
54996;BME280;40893;47.146;9.126;2022-07-04T04:35:01;91695.66;;;16.43;100.00
54996;BME280;40893;47.146;9.126;2022-07-04T04:37:26;91693.66;;;16.48;100.00
54996;BME280;40893;47.146;9.126;2022-07-04T04:39:52;91685.75;;;16.45;100.00
54996;BME280;40893;47.146;9.126;2022-07-04T04:42:18;91678.13;;;16.40;100.00
54996;BME280;40893;47.146;9.126;2022-07-04T04:44:43;91670.94;;;16.37;100.00
54996;BME280;40893;47.146;9.126;2022-07-04T04:47:09;91661.22;;;16.33;100.00
54996;BME280;40893;47.146;9.126;2022-07-04T04:49:35;91656.03;;;16.25;100.00
54996;BME280;40893;47.146;9.126;2022-07-04T04:52:00;91657.84;;;16.24;100.00
54996;BME280;40893;47.146;9.126;2022-07-04T04:54:26;91655.09;;;16.21;100.00
54996;BME280;40893;47.146;9.126;2022-07-04T04:56:51;91661.63;;;16.27;100.00
54996;BME280;40893;47.146;9.126;2022-07-04T04:59:17;91660.13;;;16.26;100.00
54996;BME280;40893;47.146;9.126;2022-07-04T05:01:42;91667.28;;;16.29;100.00
54996;BME280;40893;47.146;9.126;2022-07-04T05:04:08;91682.22;;;16.32;100.00
54996;BME280;40893;47.146;9.126;2022-07-04T05:06:34;91692.00;;;16.35;100.00
54996;BME280;40893;47.146;9.126;2022-07-04T05:09:02;91693.81;;;16.34;100.00
54996;BME280;40893;47.146;9.126;2022-07-04T05:11:28;91703.88;;;16.36;100.00
54996;BME280;40893;47.146;9.126;2022-07-04T05:13:53;91729.13;;;16.30;100.00
54996;BME280;40893;47.146;9.126;2022-07-04T05:16:19;91735.06;;;16.31;100.00
54996;BME280;40893;47.146;9.126;2022-07-04T05:18:45;91745.25;;;16.27;100.00
54996;BME280;40893;47.146;9.126;2022-07-04T05:21:10;91747.03;;;16.18;100.00
54996;BME280;40893;47.146;9.126;2022-07-04T05:23:36;91751.59;;;16.13;100.00
54996;BME280;40893;47.146;9.126;2022-07-04T05:26:01;91766.34;;;16.12;100.00
54996;BME280;40893;47.146;9.126;2022-07-04T05:28:27;91760.88;;;16.14;100.00
54996;BME280;40893;47.146;9.126;2022-07-04T05:30:52;91764.88;;;16.20;100.00
54996;BME280;40893;47.146;9.126;2022-07-04T05:33:18;91751.91;;;16.20;100.00
54996;BME280;40893;47.146;9.126;2022-07-04T05:35:43;91764.69;;;16.16;100.00
54996;BME280;40893;47.146;9.126;2022-07-04T05:38:09;91769.28;;;16.19;100.00
54996;BME280;40893;47.146;9.126;2022-07-04T05:40:36;91773.69;;;16.19;100.00
54996;BME280;40893;47.146;9.126;2022-07-04T05:43:04;91768.34;;;16.15;100.00
54996;BME280;40893;47.146;9.126;2022-07-04T05:45:31;91771.81;;;16.11;100.00
54996;BME280;40893;47.146;9.126;2022-07-04T05:48:09;91771.66;;;16.07;100.00
54996;BME280;40893;47.146;9.126;2022-07-04T05:51:25;91773.34;;;16.12;100.00
54996;BME280;40893;47.146;9.126;2022-07-04T05:54:00;91768.34;;;16.15;100.00
54996;BME280;40893;47.146;9.126;2022-07-04T05:56:25;91783.28;;;16.18;100.00
54996;BME280;40893;47.146;9.126;2022-07-04T05:58:51;91798.69;;;16.23;100.00
54996;BME280;40893;47.146;9.126;2022-07-04T06:01:21;91795.47;;;16.26;100.00
54996;BME280;40893;47.146;9.126;2022-07-04T06:04:21;91802.16;;;16.19;100.00
54996;BME280;40893;47.146;9.126;2022-07-04T06:06:53;91791.03;;;16.18;100.00
54996;BME280;40893;47.146;9.126;2022-07-04T06:09:52;91787.41;;;16.19;100.00
54996;BME280;40893;47.146;9.126;2022-07-04T06:12:21;91786.50;;;16.24;100.00
54996;BME280;40893;47.146;9.126;2022-07-04T06:14:51;91780.41;;;16.28;100.00
54996;BME280;40893;47.146;9.126;2022-07-04T06:17:26;91782.25;;;16.28;100.00
54996;BME280;40893;47.146;9.126;2022-07-04T06:20:14;91779.81;;;16.23;100.00
54996;BME280;40893;47.146;9.126;2022-07-04T06:23:30;91765.44;;;16.17;100.00
54996;BME280;40893;47.146;9.126;2022-07-04T06:26:35;91765.63;;;16.20;100.00
54996;BME280;40893;47.146;9.126;2022-07-04T06:30:04;91760.75;;;16.19;100.00
54996;BME280;40893;47.146;9.126;2022-07-04T06:35:41;91745.47;;;16.09;100.00
54996;BME280;40893;47.146;9.126;2022-07-04T06:38:24;91746.72;;;16.11;100.00
54996;BME280;40893;47.146;9.126;2022-07-04T06:40:57;91749.91;;;16.17;100.00
54996;BME280;40893;47.146;9.126;2022-07-04T06:43:23;91746.44;;;16.21;100.00
54996;BME280;40893;47.146;9.126;2022-07-04T06:46:00;91726.97;;;16.24;100.00
54996;BME280;40893;47.146;9.126;2022-07-04T06:48:34;91726.34;;;16.27;100.00
54996;BME280;40893;47.146;9.126;2022-07-04T06:50:59;91715.41;;;16.30;100.00
54996;BME280;40893;47.146;9.126;2022-07-04T06:53:26;91710.72;;;16.41;100.00
54996;BME280;40893;47.146;9.126;2022-07-04T06:55:52;91709.34;;;16.34;100.00
54996;BME280;40893;47.146;9.126;2022-07-04T06:58:17;91706.47;;;16.36;100.00
54996;BME280;40893;47.146;9.126;2022-07-04T07:00:43;91711.00;;;16.39;100.00
54996;BME280;40893;47.146;9.126;2022-07-04T07:03:09;91712.13;;;16.47;100.00
54996;BME280;40893;47.146;9.126;2022-07-04T07:05:35;91704.19;;;16.52;100.00
54996;BME280;40893;47.146;9.126;2022-07-04T07:08:05;91691.13;;;16.57;100.00
54996;BME280;40893;47.146;9.126;2022-07-04T07:10:30;91680.50;;;16.67;100.00
54996;BME280;40893;47.146;9.126;2022-07-04T07:13:01;91663.25;;;16.71;100.00
54996;BME280;40893;47.146;9.126;2022-07-04T07:15:27;91649.56;;;16.70;100.00
54996;BME280;40893;47.146;9.126;2022-07-04T07:17:53;91641.34;;;16.68;100.00
54996;BME280;40893;47.146;9.126;2022-07-04T07:20:19;91626.41;;;16.65;100.00
54996;BME280;40893;47.146;9.126;2022-07-04T07:22:44;91620.31;;;16.70;100.00
54996;BME280;40893;47.146;9.126;2022-07-04T07:25:10;91615.28;;;16.74;100.00
54996;BME280;40893;47.146;9.126;2022-07-04T07:27:37;91623.38;;;16.81;100.00
54996;BME280;40893;47.146;9.126;2022-07-04T07:30:04;91629.00;;;16.91;100.00
54996;BME280;40893;47.146;9.126;2022-07-04T07:32:30;91635.09;;;17.04;100.00
54996;BME280;40893;47.146;9.126;2022-07-04T07:34:56;91652.00;;;17.01;100.00
54996;BME280;40893;47.146;9.126;2022-07-04T07:37:21;91657.66;;;17.03;100.00
54996;BME280;40893;47.146;9.126;2022-07-04T07:39:48;91665.09;;;17.05;100.00
54996;BME280;40893;47.146;9.126;2022-07-04T07:42:13;91666.19;;;17.04;100.00
54996;BME280;40893;47.146;9.126;2022-07-04T07:44:39;91661.47;;;16.97;100.00
54996;BME280;40893;47.146;9.126;2022-07-04T07:47:05;91652.63;;;16.90;100.00
54996;BME280;40893;47.146;9.126;2022-07-04T07:49:30;91632.34;;;16.83;100.00
54996;BME280;40893;47.146;9.126;2022-07-04T07:51:56;91617.84;;;16.82;100.00
54996;BME280;40893;47.146;9.126;2022-07-04T07:54:22;91609.78;;;16.75;100.00
54996;BME280;40893;47.146;9.126;2022-07-04T07:56:47;91611.91;;;16.73;100.00
54996;BME280;40893;47.146;9.126;2022-07-04T07:59:13;91616.50;;;16.67;100.00
54996;BME280;40893;47.146;9.126;2022-07-04T08:01:38;91611.72;;;16.61;100.00
54996;BME280;40893;47.146;9.126;2022-07-04T08:04:04;91604.72;;;16.61;100.00
54996;BME280;40893;47.146;9.126;2022-07-04T08:06:48;91601.38;;;16.61;100.00
54996;BME280;40893;47.146;9.126;2022-07-04T08:09:14;91604.72;;;16.61;100.00
54996;BME280;40893;47.146;9.126;2022-07-04T08:11:40;91619.66;;;16.56;100.00
54996;BME280;40893;47.146;9.126;2022-07-04T08:14:06;91623.03;;;16.56;100.00
54996;BME280;40893;47.146;9.126;2022-07-04T08:16:33;91616.75;;;16.49;100.00
54996;BME280;40893;47.146;9.126;2022-07-04T08:18:59;91623.91;;;16.52;100.00
54996;BME280;40893;47.146;9.126;2022-07-04T08:21:24;91642.22;;;16.47;100.00
54996;BME280;40893;47.146;9.126;2022-07-04T08:23:50;91642.81;;;16.52;100.00
54996;BME280;40893;47.146;9.126;2022-07-04T08:26:16;91637.38;;;16.62;100.00
54996;BME280;40893;47.146;9.126;2022-07-04T08:28:41;91629.59;;;16.71;100.00
54996;BME280;40893;47.146;9.126;2022-07-04T08:31:07;91645.13;;;16.71;100.00
54996;BME280;40893;47.146;9.126;2022-07-04T08:33:32;91640.13;;;16.66;100.00
54996;BME280;40893;47.146;9.126;2022-07-04T08:35:58;91634.34;;;16.69;100.00
54996;BME280;40893;47.146;9.126;2022-07-04T08:38:24;91633.09;;;16.66;100.00
54996;BME280;40893;47.146;9.126;2022-07-04T08:40:54;91626.25;;;16.70;100.00
54996;BME280;40893;47.146;9.126;2022-07-04T08:43:23;91614.06;;;16.80;100.00
54996;BME280;40893;47.146;9.126;2022-07-04T08:45:49;91610.25;;;16.86;100.00
54996;BME280;40893;47.146;9.126;2022-07-04T08:48:23;91623.53;;;16.93;100.00
54996;BME280;40893;47.146;9.126;2022-07-04T08:50:53;91632.34;;;16.92;100.00
54996;BME280;40893;47.146;9.126;2022-07-04T08:53:20;91622.44;;;16.94;100.00
54996;BME280;40893;47.146;9.126;2022-07-04T08:55:48;91621.06;;;16.96;100.00
54996;BME280;40893;47.146;9.126;2022-07-04T08:58:33;91625.03;;;17.02;100.00
54996;BME280;40893;47.146;9.126;2022-07-04T09:01:00;91619.84;;;17.11;100.00
54996;BME280;40893;47.146;9.126;2022-07-04T09:03:28;91623.00;;;17.17;100.00
54996;BME280;40893;47.146;9.126;2022-07-04T09:05:54;91618.59;;;17.26;100.00
54996;BME280;40893;47.146;9.126;2022-07-04T09:08:20;91629.25;;;17.33;100.00
54996;BME280;40893;47.146;9.126;2022-07-04T09:10:47;91627.56;;;17.37;100.00
54996;BME280;40893;47.146;9.126;2022-07-04T09:13:13;91628.63;;;17.45;100.00
54996;BME280;40893;47.146;9.126;2022-07-04T09:15:47;91636.81;;;17.64;100.00
54996;BME280;40893;47.146;9.126;2022-07-04T09:18:25;91633.03;;;17.99;100.00
54996;BME280;40893;47.146;9.126;2022-07-04T09:20:53;91643.75;;;18.27;100.00
54996;BME280;40893;47.146;9.126;2022-07-04T09:25:46;91645.56;;;18.56;100.00
54996;BME280;40893;47.146;9.126;2022-07-04T09:28:11;91642.63;;;18.66;100.00
54996;BME280;40893;47.146;9.126;2022-07-04T09:30:50;91648.97;;;18.77;100.00
54996;BME280;40893;47.146;9.126;2022-07-04T09:33:16;91646.28;;;18.86;100.00
54996;BME280;40893;47.146;9.126;2022-07-04T09:35:43;91637.94;;;19.01;100.00
54996;BME280;40893;47.146;9.126;2022-07-04T09:38:11;91627.34;;;19.06;100.00
54996;BME280;40893;47.146;9.126;2022-07-04T09:40:40;91624.41;;;19.29;100.00
54996;BME280;40893;47.146;9.126;2022-07-04T09:43:25;91620.69;;;19.50;100.00
54996;BME280;40893;47.146;9.126;2022-07-04T10:42:28;91598.09;;;21.16;87.93
54996;BME280;40893;47.146;9.126;2022-07-04T10:54:43;91588.75;;;21.15;85.67
54996;BME280;40893;47.146;9.126;2022-07-04T10:57:29;91588.69;;;20.99;88.53
54996;BME280;40893;47.146;9.126;2022-07-04T11:00:10;91584.03;;;20.93;86.67
54996;BME280;40893;47.146;9.126;2022-07-04T11:03:21;91580.03;;;20.95;85.48
54996;BME280;40893;47.146;9.126;2022-07-04T11:05:57;91581.72;;;21.03;92.66
54996;BME280;40893;47.146;9.126;2022-07-04T11:18:51;91565.69;;;21.61;94.33
54996;BME280;40893;47.146;9.126;2022-07-04T11:22:03;91566.94;;;21.83;91.88
54996;BME280;40893;47.146;9.126;2022-07-04T11:25:04;91559.63;;;21.88;86.79
54996;BME280;40893;47.146;9.126;2022-07-04T11:27:41;91551.38;;;21.70;83.44
54996;BME280;40893;47.146;9.126;2022-07-04T11:30:11;91550.19;;;21.68;84.21
54996;BME280;40893;47.146;9.126;2022-07-04T11:32:41;91544.91;;;21.64;87.34
54996;BME280;40893;47.146;9.126;2022-07-04T11:35:35;91542.38;;;21.52;87.69
54996;BME280;40893;47.146;9.126;2022-07-04T11:41:51;91535.88;;;21.46;86.90
54996;BME280;40893;47.146;9.126;2022-07-04T11:48:42;91531.34;;;21.74;88.09
54996;BME280;40893;47.146;9.126;2022-07-04T11:51:43;91521.56;;;21.87;84.61
54996;BME280;40893;47.146;9.126;2022-07-04T11:55:04;91510.50;;;21.94;82.76
54996;BME280;40893;47.146;9.126;2022-07-04T12:00:48;91499.28;;;22.09;87.98
54996;BME280;40893;47.146;9.126;2022-07-04T12:06:10;91495.06;;;22.20;84.09
54996;BME280;40893;47.146;9.126;2022-07-04T12:08:50;91487.25;;;22.24;77.32
54996;BME280;40893;47.146;9.126;2022-07-04T12:11:17;91480.56;;;22.42;82.63
54996;BME280;40893;47.146;9.126;2022-07-04T12:14:11;91477.59;;;22.63;84.28
54996;BME280;40893;47.146;9.126;2022-07-04T12:16:45;91470.94;;;22.65;87.37
54996;BME280;40893;47.146;9.126;2022-07-04T12:19:12;91476.56;;;22.67;84.75
54996;BME280;40893;47.146;9.126;2022-07-04T12:21:39;91476.91;;;22.66;79.75
54996;BME280;40893;47.146;9.126;2022-07-04T12:24:10;91472.28;;;22.59;77.79
54996;BME280;40893;47.146;9.126;2022-07-04T12:26:51;91471.91;;;22.57;80.64
54996;BME280;40893;47.146;9.126;2022-07-04T12:29:47;91468.66;;;22.44;79.41
54996;BME280;40893;47.146;9.126;2022-07-04T12:32:47;91471.44;;;22.17;78.27
54996;BME280;40893;47.146;9.126;2022-07-04T13:08:52;91433.50;;;21.53;85.06
54996;BME280;40893;47.146;9.126;2022-07-04T13:42:14;91398.28;;;21.47;90.16
54996;BME280;40893;47.146;9.126;2022-07-04T13:48:38;91395.31;;;21.64;90.57
54996;BME280;40893;47.146;9.126;2022-07-04T13:57:37;91422.09;;;21.61;87.26
54996;BME280;40893;47.146;9.126;2022-07-04T15:11:30;91571.63;;;19.28;100.00
54996;BME280;40893;47.146;9.126;2022-07-04T15:14:08;91584.13;;;18.81;100.00
54996;BME280;40893;47.146;9.126;2022-07-04T15:16:34;91614.16;;;18.40;100.00
54996;BME280;40893;47.146;9.126;2022-07-04T15:19:10;91622.66;;;17.99;100.00
54996;BME280;40893;47.146;9.126;2022-07-04T15:22:20;91626.59;;;17.67;100.00
54996;BME280;40893;47.146;9.126;2022-07-04T15:28:59;91698.34;;;17.46;100.00
54996;BME280;40893;47.146;9.126;2022-07-04T15:45:55;91645.28;;;16.75;100.00
54996;BME280;40893;47.146;9.126;2022-07-04T15:49:02;91615.44;;;16.68;100.00
54996;BME280;40893;47.146;9.126;2022-07-04T15:55:51;91568.81;;;16.68;100.00
54996;BME280;40893;47.146;9.126;2022-07-04T15:58:37;91548.84;;;16.69;100.00
54996;BME280;40893;47.146;9.126;2022-07-04T16:01:17;91521.88;;;16.70;100.00
54996;BME280;40893;47.146;9.126;2022-07-04T16:27:49;91559.34;;;16.73;100.00
54996;BME280;40893;47.146;9.126;2022-07-04T16:37:49;91566.16;;;17.12;100.00
54996;BME280;40893;47.146;9.126;2022-07-04T16:40:51;91572.09;;;17.12;100.00
54996;BME280;40893;47.146;9.126;2022-07-04T16:43:34;91570.31;;;17.04;100.00
54996;BME280;40893;47.146;9.126;2022-07-04T16:46:14;91577.13;;;17.09;100.00
54996;BME280;40893;47.146;9.126;2022-07-04T16:48:41;91563.59;;;17.03;100.00
54996;BME280;40893;47.146;9.126;2022-07-04T16:51:07;91533.09;;;17.00;100.00
54996;BME280;40893;47.146;9.126;2022-07-04T16:53:33;91539.66;;;16.97;100.00
54996;BME280;40893;47.146;9.126;2022-07-04T16:55:59;91558.75;;;16.93;100.00
54996;BME280;40893;47.146;9.126;2022-07-04T16:58:25;91580.38;;;16.88;100.00
54996;BME280;40893;47.146;9.126;2022-07-04T17:00:50;91596.81;;;16.84;100.00
54996;BME280;40893;47.146;9.126;2022-07-04T17:03:16;91598.66;;;16.75;100.00
54996;BME280;40893;47.146;9.126;2022-07-04T17:05:42;91609.31;;;16.73;100.00
54996;BME280;40893;47.146;9.126;2022-07-04T17:08:08;91601.09;;;16.71;100.00
54996;BME280;40893;47.146;9.126;2022-07-04T17:10:34;91603.25;;;16.69;100.00
54996;BME280;40893;47.146;9.126;2022-07-04T17:13:00;91598.78;;;16.61;100.00
54996;BME280;40893;47.146;9.126;2022-07-04T17:15:26;91590.75;;;16.62;100.00
54996;BME280;40893;47.146;9.126;2022-07-04T17:17:52;91588.63;;;16.64;100.00
54996;BME280;40893;47.146;9.126;2022-07-04T17:20:18;91579.19;;;16.68;100.00
54996;BME280;40893;47.146;9.126;2022-07-04T17:22:43;91576.13;;;16.66;100.00
54996;BME280;40893;47.146;9.126;2022-07-04T17:25:09;91558.28;;;16.74;100.00
54996;BME280;40893;47.146;9.126;2022-07-04T17:27:35;91552.50;;;16.68;100.00
54996;BME280;40893;47.146;9.126;2022-07-04T17:30:00;91549.91;;;16.68;100.00
54996;BME280;40893;47.146;9.126;2022-07-04T17:32:26;91543.81;;;16.64;100.00
54996;BME280;40893;47.146;9.126;2022-07-04T17:34:52;91543.97;;;16.59;100.00
54996;BME280;40893;47.146;9.126;2022-07-04T17:37:17;91545.78;;;16.58;100.00
54996;BME280;40893;47.146;9.126;2022-07-04T17:39:44;91561.00;;;16.60;100.00
54996;BME280;40893;47.146;9.126;2022-07-04T17:42:11;91562.25;;;16.62;100.00
54996;BME280;40893;47.146;9.126;2022-07-04T17:44:37;91560.59;;;16.66;100.00
54996;BME280;40893;47.146;9.126;2022-07-04T17:47:04;91560.13;;;16.73;100.00
54996;BME280;40893;47.146;9.126;2022-07-04T17:49:29;91563.63;;;16.77;100.00
54996;BME280;40893;47.146;9.126;2022-07-04T17:51:55;91550.66;;;16.77;100.00
54996;BME280;40893;47.146;9.126;2022-07-04T17:54:20;91542.59;;;16.79;100.00
54996;BME280;40893;47.146;9.126;2022-07-04T17:56:47;91534.34;;;16.85;100.00
54996;BME280;40893;47.146;9.126;2022-07-04T17:59:13;91535.72;;;16.91;100.00
54996;BME280;40893;47.146;9.126;2022-07-04T18:01:39;91541.19;;;16.98;100.00
54996;BME280;40893;47.146;9.126;2022-07-04T18:04:05;91544.22;;;17.00;100.00
54996;BME280;40893;47.146;9.126;2022-07-04T18:06:37;91547.72;;;17.04;100.00
54996;BME280;40893;47.146;9.126;2022-07-04T18:09:03;91548.81;;;16.95;100.00
54996;BME280;40893;47.146;9.126;2022-07-04T18:11:29;91543.34;;;16.88;100.00
54996;BME280;40893;47.146;9.126;2022-07-04T18:13:55;91529.47;;;16.84;100.00
54996;BME280;40893;47.146;9.126;2022-07-04T18:16:21;91531.00;;;16.85;100.00
54996;BME280;40893;47.146;9.126;2022-07-04T18:18:47;91535.44;;;16.76;100.00
54996;BME280;40893;47.146;9.126;2022-07-04T18:21:12;91537.28;;;16.66;100.00
54996;BME280;40893;47.146;9.126;2022-07-04T18:23:42;91538.81;;;16.67;100.00
54996;BME280;40893;47.146;9.126;2022-07-04T18:26:10;91540.75;;;16.70;100.00
54996;BME280;40893;47.146;9.126;2022-07-04T18:28:38;91549.47;;;16.66;100.00
54996;BME280;40893;47.146;9.126;2022-07-04T18:31:10;91544.44;;;16.69;100.00
54996;BME280;40893;47.146;9.126;2022-07-04T18:33:36;91543.81;;;16.64;100.00
54996;BME280;40893;47.146;9.126;2022-07-04T18:36:03;91537.09;;;16.54;100.00
54996;BME280;40893;47.146;9.126;2022-07-04T18:38:29;91545.78;;;16.41;100.00
54996;BME280;40893;47.146;9.126;2022-07-04T18:40:56;91553.72;;;16.36;100.00
54996;BME280;40893;47.146;9.126;2022-07-04T18:43:41;91543.78;;;16.38;100.00
54996;BME280;40893;47.146;9.126;2022-07-04T18:46:09;91537.72;;;16.43;100.00
54996;BME280;40893;47.146;9.126;2022-07-04T18:48:35;91545.34;;;16.48;100.00
54996;BME280;40893;47.146;9.126;2022-07-04T18:51:02;91555.81;;;16.51;100.00
54996;BME280;40893;47.146;9.126;2022-07-04T18:53:29;91559.03;;;16.48;100.00
54996;BME280;40893;47.146;9.126;2022-07-04T18:55:55;91568.78;;;16.51;100.00
54996;BME280;40893;47.146;9.126;2022-07-04T18:58:21;91573.66;;;16.53;100.00
54996;BME280;40893;47.146;9.126;2022-07-04T19:00:47;91577.31;;;16.52;100.00
54996;BME280;40893;47.146;9.126;2022-07-04T19:03:12;91583.25;;;16.52;100.00
54996;BME280;40893;47.146;9.126;2022-07-04T19:05:39;91586.00;;;16.56;100.00
54996;BME280;40893;47.146;9.126;2022-07-04T19:08:09;91590.25;;;16.43;100.00
54996;BME280;40893;47.146;9.126;2022-07-04T19:10:39;91585.22;;;16.29;100.00
54996;BME280;40893;47.146;9.126;2022-07-04T19:13:06;91591.91;;;16.22;100.00
54996;BME280;40893;47.146;9.126;2022-07-04T19:15:32;91591.16;;;16.30;100.00
54996;BME280;40893;47.146;9.126;2022-07-04T19:17:59;91579.72;;;16.31;100.00
54996;BME280;40893;47.146;9.126;2022-07-04T19:20:25;91578.03;;;16.26;100.00
54996;BME280;40893;47.146;9.126;2022-07-04T19:22:54;91581.97;;;16.15;100.00
54996;BME280;40893;47.146;9.126;2022-07-04T19:25:23;91580.16;;;16.16;100.00
54996;BME280;40893;47.146;9.126;2022-07-04T19:27:50;91575.75;;;16.16;100.00
54996;BME280;40893;47.146;9.126;2022-07-04T19:30:18;91570.13;;;16.23;100.00
54996;BME280;40893;47.146;9.126;2022-07-04T19:32:44;91563.56;;;16.25;100.00
54996;BME280;40893;47.146;9.126;2022-07-04T19:35:10;91567.69;;;16.26;100.00
54996;BME280;40893;47.146;9.126;2022-07-04T19:37:37;91566.78;;;16.22;100.00
54996;BME280;40893;47.146;9.126;2022-07-04T19:40:05;91574.41;;;16.27;100.00
54996;BME280;40893;47.146;9.126;2022-07-04T19:42:31;91573.31;;;16.20;100.00
54996;BME280;40893;47.146;9.126;2022-07-04T19:44:57;91568.63;;;16.13;100.00